createdAt,value
2022-08-05T00:00:19.043Z,23.14
2022-08-05T00:02:51.098Z,23.14
2022-08-05T00:06:02.792Z,23.13
2022-08-05T00:08:35.284Z,23.07
2022-08-05T00:11:00.770Z,23.09
2022-08-05T00:13:38.892Z,23.09
2022-08-05T00:16:16.117Z,23.08
2022-08-05T00:18:46.364Z,23.07
2022-08-05T00:21:16.606Z,23.03
2022-08-05T00:23:53.746Z,23.01
2022-08-05T00:26:33.187Z,22.99
2022-08-05T00:29:00.197Z,22.96
2022-08-05T00:31:53.763Z,22.96
2022-08-05T00:34:53.875Z,22.95
2022-08-05T00:37:12.798Z,22.94
2022-08-05T00:39:58.625Z,22.89
2022-08-05T00:42:42.263Z,22.87
2022-08-05T00:45:15.488Z,22.88
2022-08-05T00:47:56.657Z,22.85
2022-08-05T00:50:25.625Z,22.79
2022-08-05T00:52:55.173Z,22.81
2022-08-05T00:55:23.251Z,22.75
2022-08-05T00:58:11.296Z,22.78
2022-08-05T01:00:39.798Z,22.78
2022-08-05T01:03:07.933Z,22.79
2022-08-05T01:05:35.353Z,22.83
2022-08-05T01:08:40.803Z,22.85
2022-08-05T01:11:01.105Z,22.90
2022-08-05T01:13:59.443Z,22.92
2022-08-05T01:17:05.268Z,22.95
2022-08-05T01:19:56.470Z,22.94
2022-08-05T01:22:34.655Z,22.93
2022-08-05T01:25:42.376Z,22.88
2022-08-05T01:28:44.251Z,22.86
2022-08-05T01:31:18.909Z,22.82
2022-08-05T01:33:53.799Z,22.79
2022-08-05T01:36:28.164Z,22.76
2022-08-05T01:38:56.965Z,22.74
2022-08-05T01:41:32.729Z,22.75
2022-08-05T01:44:02.226Z,22.77
2022-08-05T01:46:41.984Z,22.73
2022-08-05T01:49:23.789Z,22.77
2022-08-05T01:51:58.733Z,22.77
2022-08-05T01:54:46.924Z,22.75
2022-08-05T01:58:10.466Z,22.72
2022-08-05T02:00:13.044Z,22.73
2022-08-05T02:02:54.397Z,22.68
2022-08-05T02:05:29.056Z,22.67
2022-08-05T02:08:01.723Z,22.62
2022-08-05T02:10:43.835Z,22.60
2022-08-05T02:13:25.863Z,22.66
2022-08-05T02:16:19.590Z,22.66
2022-08-05T02:19:01.277Z,22.64
2022-08-05T02:21:40.313Z,22.63
2022-08-05T02:24:17.992Z,22.64
2022-08-05T02:26:53.731Z,22.67
2022-08-05T02:29:58.000Z,22.64
2022-08-05T02:32:23.737Z,22.66
2022-08-05T02:34:54.600Z,22.73
2022-08-05T02:37:23.902Z,22.76
2022-08-05T02:39:52.773Z,22.74
2022-08-05T02:42:27.662Z,22.79
2022-08-05T02:44:58.956Z,22.85
2022-08-05T02:47:58.438Z,22.89
2022-08-05T02:50:18.082Z,22.89
2022-08-05T02:52:47.009Z,22.95
2022-08-05T02:55:14.734Z,22.93
2022-08-05T02:58:11.378Z,22.99
2022-08-05T03:00:35.250Z,23.01
2022-08-05T03:03:10.153Z,22.99
2022-08-05T03:06:53.577Z,23.06
2022-08-05T03:08:30.049Z,23.12
2022-08-05T03:11:55.786Z,23.14
2022-08-05T03:13:51.915Z,23.18
2022-08-05T03:16:30.527Z,23.21
2022-08-05T03:19:00.229Z,23.23
2022-08-05T03:21:28.852Z,23.24
2022-08-05T03:24:00.739Z,23.26
2022-08-05T03:26:31.420Z,23.28
2022-08-05T03:29:00.463Z,23.31
2022-08-05T03:31:55.923Z,23.34
2022-08-05T03:34:16.729Z,23.40
2022-08-05T03:36:43.889Z,23.40
2022-08-05T03:39:19.822Z,23.46
2022-08-05T03:41:47.448Z,23.51
2022-08-05T03:44:19.790Z,23.53
2022-08-05T03:46:47.460Z,23.44
2022-08-05T03:49:15.564Z,23.57
2022-08-05T03:52:48.882Z,23.64
2022-08-05T03:56:09.477Z,23.64
2022-08-05T03:58:11.277Z,23.75
2022-08-05T04:00:42.015Z,23.78
2022-08-05T04:03:15.060Z,23.85
2022-08-05T04:05:59.187Z,23.94
2022-08-05T04:08:34.858Z,23.96
2022-08-05T04:11:08.517Z,24.05
2022-08-05T04:13:50.120Z,24.15
2022-08-05T04:16:25.548Z,24.23
2022-08-05T04:19:00.034Z,24.30
2022-08-05T04:22:09.221Z,24.39
2022-08-05T04:24:19.396Z,24.62
2022-08-05T04:26:50.539Z,24.76
2022-08-05T04:29:17.526Z,24.87
2022-08-05T04:31:44.499Z,25.09
2022-08-05T04:34:24.484Z,25.22
2022-08-05T04:37:03.109Z,25.25
2022-08-05T04:39:32.067Z,25.39
2022-08-05T04:41:59.219Z,25.49
2022-08-05T04:44:29.400Z,25.55
2022-08-05T04:46:59.558Z,25.63
2022-08-05T04:49:39.195Z,25.69
2022-08-05T04:52:15.468Z,25.71
2022-08-05T04:54:42.665Z,25.83
2022-08-05T04:57:09.688Z,25.89
2022-08-05T04:59:40.775Z,25.96
2022-08-05T05:02:41.491Z,25.98
2022-08-05T05:05:02.163Z,26.03
2022-08-05T05:07:32.463Z,26.09
2022-08-05T05:10:04.469Z,26.13
2022-08-05T05:12:34.500Z,26.17
2022-08-05T05:15:05.474Z,26.11
2022-08-05T05:17:56.334Z,26.23
2022-08-05T05:20:28.502Z,26.31
2022-08-05T05:23:08.480Z,26.40
2022-08-05T05:25:46.671Z,26.47
2022-08-05T05:28:15.012Z,26.54
2022-08-05T05:30:42.794Z,26.62
2022-08-05T05:33:17.546Z,26.67
2022-08-05T05:35:53.699Z,26.69
2022-08-05T05:38:22.679Z,26.65
2022-08-05T05:40:56.270Z,26.68
2022-08-05T05:43:56.430Z,26.72
2022-08-05T05:46:17.598Z,26.78
2022-08-05T05:48:49.251Z,26.85
2022-08-05T05:51:23.479Z,26.92
2022-08-05T05:53:58.696Z,26.93
2022-08-05T05:56:34.162Z,26.94
2022-08-05T05:59:08.247Z,27.00
2022-08-05T06:01:40.981Z,27.05
2022-08-05T06:04:24.809Z,26.95
2022-08-05T06:06:51.846Z,26.99
2022-08-05T06:09:50.221Z,27.02
2022-08-05T06:12:19.563Z,27.06
2022-08-05T06:14:46.736Z,27.05
2022-08-05T06:17:22.597Z,27.02
2022-08-05T06:19:56.711Z,26.99
2022-08-05T06:22:33.756Z,27.01
2022-08-05T06:26:12.424Z,26.96
2022-08-05T06:28:21.189Z,26.96
2022-08-05T06:30:56.325Z,27.01
2022-08-05T06:33:44.413Z,27.03
2022-08-05T06:36:19.041Z,27.00
2022-08-05T06:38:55.012Z,27.05
2022-08-05T06:41:22.422Z,27.02
2022-08-05T06:44:00.238Z,27.08
2022-08-05T06:46:39.813Z,27.17
2022-08-05T06:49:14.884Z,27.23
2022-08-05T06:51:42.790Z,27.25
2022-08-05T06:54:19.097Z,27.26
2022-08-05T06:56:54.968Z,27.28
2022-08-05T06:59:38.476Z,27.28
2022-08-05T07:02:05.968Z,27.29
2022-08-05T07:04:37.530Z,27.26
2022-08-05T07:07:08.093Z,27.36
2022-08-05T07:09:40.428Z,27.29
2022-08-05T07:12:30.253Z,27.39
2022-08-05T07:15:34.122Z,27.45
2022-08-05T07:18:08.924Z,27.48
2022-08-05T07:20:39.244Z,27.48
2022-08-05T07:23:06.557Z,27.50
2022-08-05T07:25:56.517Z,27.59
2022-08-05T07:28:20.998Z,27.63
2022-08-05T07:30:52.916Z,27.66
2022-08-05T07:33:36.501Z,27.53
2022-08-05T07:36:20.814Z,27.73
2022-08-05T07:38:49.768Z,27.76
2022-08-05T07:42:14.449Z,27.81
2022-08-05T07:44:19.090Z,27.86
2022-08-05T07:46:49.543Z,27.91
2022-08-05T07:49:18.818Z,27.89
2022-08-05T07:51:53.423Z,27.91
2022-08-05T07:54:30.867Z,27.93
2022-08-05T07:57:17.814Z,28.02
2022-08-05T07:59:50.742Z,28.13
2022-08-05T08:02:18.425Z,28.14
2022-08-05T08:04:48.347Z,28.20
2022-08-05T08:07:22.450Z,28.27
2022-08-05T08:09:52.929Z,28.24
2022-08-05T08:12:35.429Z,28.27
2022-08-05T08:15:15.699Z,28.37
2022-08-05T08:17:49.743Z,28.40
2022-08-05T08:21:00.107Z,28.42
2022-08-05T08:24:03.591Z,28.37
2022-08-05T08:26:02.847Z,28.46
2022-08-05T08:28:36.050Z,28.47
2022-08-05T08:31:08.466Z,28.57
2022-08-05T08:33:37.921Z,28.63
2022-08-05T08:38:56.015Z,28.74
2022-08-05T08:41:52.431Z,28.81
2022-08-05T08:45:19.601Z,28.89
2022-08-05T08:47:46.879Z,28.87
2022-08-05T08:50:13.195Z,29.06
2022-08-05T08:53:01.242Z,29.12
2022-08-05T08:55:31.886Z,29.14
2022-08-05T08:58:17.287Z,29.19
2022-08-05T09:00:44.712Z,29.22
2022-08-05T09:03:12.510Z,29.23
2022-08-05T09:06:08.664Z,29.32
2022-08-05T09:08:34.550Z,29.35
2022-08-05T09:11:01.756Z,29.37
2022-08-05T09:13:31.657Z,29.39
2022-08-05T09:15:59.928Z,29.34
2022-08-05T09:18:27.483Z,29.52
2022-08-05T09:20:55.092Z,29.56
2022-08-05T09:23:23.519Z,29.63
2022-08-05T09:26:20.540Z,29.76
2022-08-05T09:28:59.279Z,29.83
2022-08-05T09:32:39.855Z,29.89
2022-08-05T09:34:14.484Z,30.03
2022-08-05T09:36:55.884Z,30.15
2022-08-05T09:39:41.392Z,30.16
2022-08-05T09:42:23.120Z,30.07
2022-08-05T09:44:56.657Z,30.00
2022-08-05T09:47:36.361Z,29.94
2022-08-05T09:50:18.028Z,29.92
2022-08-05T09:53:02.039Z,30.02
2022-08-05T09:55:59.124Z,30.10
2022-08-05T09:58:24.778Z,30.24
2022-08-05T10:00:59.939Z,30.41
2022-08-05T10:03:51.829Z,30.54
2022-08-05T10:06:20.749Z,30.72
2022-08-05T10:08:50.436Z,30.88
2022-08-05T10:11:23.488Z,30.97
2022-08-05T10:13:55.853Z,31.12
2022-08-05T10:16:52.435Z,31.22
2022-08-05T10:20:04.389Z,31.37
2022-08-05T10:22:29.672Z,31.42
2022-08-05T10:25:09.902Z,31.47
2022-08-05T10:28:12.791Z,31.43
2022-08-05T10:32:48.096Z,31.46
2022-08-05T10:33:55.536Z,31.58
2022-08-05T10:36:25.979Z,31.54
2022-08-05T10:39:04.984Z,31.62
2022-08-05T10:41:54.961Z,31.63
2022-08-05T10:44:24.834Z,31.58
2022-08-05T10:46:55.339Z,31.59
2022-08-05T10:49:27.610Z,31.50
2022-08-05T10:52:10.535Z,31.54
2022-08-05T10:55:05.867Z,31.63
2022-08-05T10:57:34.287Z,31.65
2022-08-05T11:00:14.779Z,31.64
2022-08-05T11:03:24.923Z,31.70
2022-08-05T11:06:15.127Z,31.73
2022-08-05T11:09:32.426Z,31.61
2022-08-05T11:12:50.763Z,31.54
2022-08-05T11:15:59.259Z,31.48
2022-08-05T11:18:29.791Z,31.35
2022-08-05T11:21:11.277Z,31.49
2022-08-05T11:24:05.225Z,31.60
2022-08-05T11:26:33.017Z,31.82
2022-08-05T11:29:12.789Z,31.99
2022-08-05T11:31:57.072Z,32.14
2022-08-05T11:34:39.123Z,32.15
2022-08-05T11:38:36.447Z,32.13
2022-08-05T11:39:55.427Z,32.01
2022-08-05T11:42:29.009Z,31.95
2022-08-05T11:45:05.402Z,31.97
2022-08-05T11:47:48.621Z,31.90
2022-08-05T11:50:18.552Z,31.98
2022-08-05T11:52:49.473Z,32.30
2022-08-05T11:55:17.631Z,32.82
2022-08-05T11:58:08.156Z,33.31
2022-08-05T12:00:37.818Z,33.98
2022-08-05T12:03:29.030Z,34.62
2022-08-05T12:06:03.319Z,34.73
2022-08-05T12:08:34.205Z,34.55
2022-08-05T12:11:10.353Z,34.25
2022-08-05T12:14:14.588Z,33.90
2022-08-05T12:16:50.008Z,33.57
2022-08-05T12:20:25.959Z,33.39
2022-08-05T12:22:09.571Z,33.06
2022-08-05T12:24:43.729Z,32.99
2022-08-05T12:27:36.207Z,32.84
2022-08-05T12:30:22.656Z,32.58
2022-08-05T12:33:07.422Z,32.36
2022-08-05T12:35:49.982Z,32.11
2022-08-05T12:38:30.247Z,31.86
2022-08-05T12:40:59.868Z,31.68
2022-08-05T12:43:27.134Z,31.54
2022-08-05T12:45:59.263Z,31.57
2022-08-05T12:48:27.345Z,31.38
2022-08-05T12:52:10.353Z,31.35
2022-08-05T12:54:05.051Z,31.24
2022-08-05T12:56:53.721Z,31.17
2022-08-05T12:59:27.453Z,31.17
2022-08-05T13:02:13.537Z,31.20
2022-08-05T13:04:54.509Z,31.21
2022-08-05T13:07:54.732Z,31.70
2022-08-05T13:10:13.706Z,32.71
2022-08-05T13:12:57.155Z,33.98
2022-08-05T13:15:41.076Z,34.89
2022-08-05T13:18:20.172Z,35.36
2022-08-05T13:20:50.128Z,35.42
2022-08-05T13:23:22.556Z,35.64
2022-08-05T13:26:01.056Z,36.54
2022-08-05T13:28:29.117Z,37.65
2022-08-05T13:31:11.151Z,38.75
2022-08-05T13:34:22.358Z,39.78
2022-08-05T13:36:29.794Z,40.32
2022-08-05T13:38:57.028Z,39.98
2022-08-05T13:41:35.893Z,39.22
2022-08-05T13:44:05.501Z,38.14
2022-08-05T13:46:50.655Z,37.31
2022-08-05T13:49:20.456Z,36.45
2022-08-05T13:51:48.613Z,35.79
2022-08-05T13:54:21.077Z,35.23
2022-08-05T13:56:52.861Z,34.86
2022-08-05T13:59:24.924Z,34.49
2022-08-05T14:01:58.383Z,34.22
2022-08-05T14:04:57.045Z,34.02
2022-08-05T14:08:00.761Z,33.68
2022-08-05T14:10:30.675Z,33.57
2022-08-05T14:12:59.633Z,33.51
2022-08-05T14:16:08.430Z,33.37
2022-08-05T14:18:23.194Z,33.23
2022-08-05T14:20:54.498Z,33.14
2022-08-05T14:23:25.075Z,33.07
2022-08-05T14:25:58.640Z,33.16
2022-08-05T14:28:29.866Z,33.46
2022-08-05T14:30:58.731Z,33.60
2022-08-05T14:33:25.888Z,34.16
2022-08-05T14:35:54.400Z,34.99
2022-08-05T14:38:32.911Z,35.82
2022-08-05T14:41:28.567Z,36.32
2022-08-05T14:44:02.711Z,36.72
2022-08-05T14:46:40.671Z,37.36
2022-08-05T14:49:09.821Z,37.96
2022-08-05T14:51:38.457Z,38.47
2022-08-05T14:54:29.930Z,38.97
2022-08-05T14:56:59.006Z,39.37
2022-08-05T14:59:29.215Z,39.67
2022-08-05T15:01:57.853Z,39.90
2022-08-05T15:04:27.469Z,40.02
2022-08-05T15:06:56.508Z,40.04
2022-08-05T15:09:54.217Z,40.18
2022-08-05T15:12:16.578Z,40.38
2022-08-05T15:14:50.163Z,40.49
2022-08-05T15:17:45.861Z,40.59
2022-08-05T15:20:15.550Z,40.73
2022-08-05T15:22:44.767Z,40.83
2022-08-05T15:25:14.347Z,40.89
2022-08-05T15:27:52.353Z,40.87
2022-08-05T15:30:21.803Z,40.78
2022-08-05T15:32:49.513Z,40.66
2022-08-05T15:35:16.440Z,40.52
2022-08-05T15:38:34.668Z,40.41
2022-08-05T15:41:03.091Z,40.43
2022-08-05T15:43:21.927Z,40.38
2022-08-05T15:46:00.284Z,40.32
2022-08-05T15:48:28.618Z,40.07
2022-08-05T15:50:56.365Z,39.97
2022-08-05T15:53:26.338Z,39.94
2022-08-05T15:56:02.374Z,39.91
2022-08-05T15:58:35.392Z,39.83
2022-08-05T16:01:16.096Z,39.72
2022-08-05T16:03:43.967Z,39.64
2022-08-05T16:06:11.345Z,39.49
2022-08-05T16:08:41.574Z,39.29
2022-08-05T16:11:10.561Z,39.04
2022-08-05T16:13:37.755Z,38.85
2022-08-05T16:16:05.309Z,38.67
2022-08-05T16:18:33.200Z,38.46
2022-08-05T16:21:04.220Z,38.25
2022-08-05T16:23:53.576Z,37.97
2022-08-05T16:26:26.279Z,37.72
2022-08-05T16:28:55.046Z,37.28
2022-08-05T16:31:23.081Z,36.92
2022-08-05T16:33:52.336Z,36.53
2022-08-05T16:36:23.720Z,36.19
2022-08-05T16:38:54.795Z,35.80
2022-08-05T16:42:14.979Z,35.46
2022-08-05T16:44:11.547Z,34.96
2022-08-05T16:46:41.137Z,34.47
2022-08-05T16:49:09.993Z,34.08
2022-08-05T16:51:42.816Z,33.73
2022-08-05T16:54:25.824Z,33.39
2022-08-05T16:56:56.045Z,33.05
2022-08-05T16:59:23.449Z,32.72
2022-08-05T17:01:54.109Z,32.36
2022-08-05T17:04:26.624Z,32.14
2022-08-05T17:06:55.629Z,31.58
2022-08-05T17:09:24.501Z,31.14
2022-08-05T17:11:59.199Z,30.74
2022-08-05T17:14:37.677Z,30.40
2022-08-05T17:17:14.472Z,30.07
2022-08-05T17:19:45.293Z,29.77
2022-08-05T17:22:24.390Z,29.52
2022-08-05T17:24:57.133Z,29.23
2022-08-05T17:27:33.558Z,29.05
2022-08-05T17:30:02.495Z,28.74
2022-08-05T17:32:32.210Z,28.64
2022-08-05T17:35:04.861Z,28.46
2022-08-05T17:37:41.425Z,28.30
2022-08-05T17:40:17.906Z,28.12
2022-08-05T17:42:51.148Z,27.98
2022-08-05T17:45:29.527Z,27.81
2022-08-05T17:48:07.863Z,27.66
2022-08-05T17:50:34.949Z,27.50
2022-08-05T17:53:04.766Z,27.33
2022-08-05T17:55:37.416Z,27.28
2022-08-05T17:58:12.616Z,27.16
2022-08-05T18:00:45.083Z,27.05
2022-08-05T18:03:56.304Z,26.93
2022-08-05T18:06:11.915Z,26.78
2022-08-05T18:08:44.901Z,26.70
2022-08-05T18:11:24.866Z,26.60
2022-08-05T18:14:06.519Z,26.50
2022-08-05T18:16:35.647Z,26.37
2022-08-05T18:19:18.654Z,26.29
2022-08-05T18:22:08.369Z,26.20
2022-08-05T18:24:38.088Z,26.08
2022-08-05T18:27:12.369Z,26.03
2022-08-05T18:29:48.241Z,25.96
2022-08-05T18:32:20.773Z,25.85
2022-08-05T18:34:55.012Z,25.77
2022-08-05T18:37:33.919Z,25.69
2022-08-05T18:40:33.931Z,25.59
2022-08-05T18:42:49.471Z,25.50
2022-08-05T18:45:19.319Z,25.43
2022-08-05T18:47:51.474Z,25.35
2022-08-05T18:50:46.109Z,25.32
2022-08-05T18:53:20.852Z,25.23
2022-08-05T18:55:51.718Z,25.22
2022-08-05T18:58:18.832Z,25.14
2022-08-05T19:00:56.150Z,25.11
2022-08-05T19:03:55.425Z,25.04
2022-08-05T19:06:18.523Z,24.97
2022-08-05T19:08:46.978Z,24.92
2022-08-05T19:11:15.447Z,24.87
2022-08-05T19:13:49.119Z,24.80
2022-08-05T19:16:35.314Z,24.79
2022-08-05T19:19:14.263Z,24.71
2022-08-05T19:21:44.471Z,24.71
2022-08-05T19:24:13.715Z,24.69
2022-08-05T19:26:54.793Z,24.63
2022-08-05T19:29:35.943Z,24.60
2022-08-05T19:32:08.693Z,24.57
2022-08-05T19:37:47.110Z,24.42
2022-08-05T19:40:24.055Z,24.48
2022-08-05T19:43:04.530Z,24.43
2022-08-05T19:45:36.423Z,24.37
2022-08-05T19:48:05.326Z,24.41
2022-08-05T19:50:32.643Z,24.39
2022-08-05T19:53:09.358Z,24.33
2022-08-05T19:56:14.842Z,24.32
2022-08-05T19:58:29.125Z,24.28
2022-08-05T20:00:57.786Z,24.24
2022-08-05T20:03:26.147Z,24.23
2022-08-05T20:05:56.850Z,24.20
2022-08-05T20:08:25.484Z,24.14
2022-08-05T20:10:53.326Z,24.18
2022-08-05T20:13:30.205Z,24.15
2022-08-05T20:16:08.442Z,24.14
2022-08-05T20:18:36.722Z,24.07
2022-08-05T20:21:06.544Z,24.08
2022-08-05T20:23:50.954Z,24.06
2022-08-05T20:26:20.865Z,24.01
2022-08-05T20:28:51.048Z,23.98
2022-08-05T20:31:21.700Z,23.92
2022-08-05T20:33:51.074Z,23.91
2022-08-05T20:36:19.233Z,23.87
2022-08-05T20:38:53.717Z,23.83
2022-08-05T20:41:23.650Z,23.83
2022-08-05T20:43:59.824Z,23.82
2022-08-05T20:46:30.145Z,23.82
2022-08-05T20:48:57.224Z,23.78
2022-08-05T20:51:24.234Z,23.77
2022-08-05T20:53:55.131Z,23.75
2022-08-05T20:56:31.879Z,23.75
2022-08-05T20:59:19.222Z,23.73
2022-08-05T21:01:53.845Z,23.68
2022-08-05T21:04:27.027Z,23.68
2022-08-05T21:06:55.825Z,23.67
2022-08-05T21:09:23.034Z,23.60
2022-08-05T21:12:09.991Z,23.60
2022-08-05T21:14:38.465Z,23.61
2022-08-05T21:17:06.290Z,23.53
2022-08-05T21:19:47.182Z,23.54
2022-08-05T21:22:23.200Z,23.52
2022-08-05T21:24:52.555Z,23.49
2022-08-05T21:27:25.475Z,23.47
2022-08-05T21:30:01.867Z,23.42
2022-08-05T21:32:30.395Z,23.42
2022-08-05T21:35:08.795Z,23.38
2022-08-05T21:37:47.162Z,23.33
2022-08-05T21:40:18.325Z,23.26
2022-08-05T21:42:45.833Z,23.22
2022-08-05T21:45:24.062Z,23.31
2022-08-05T21:47:56.193Z,23.28
2022-08-05T21:50:25.063Z,23.20
2022-08-05T21:52:52.400Z,23.24
2022-08-05T21:56:00.981Z,23.19
2022-08-05T21:58:10.429Z,23.20
2022-08-05T22:00:40.070Z,23.19
2022-08-05T22:03:10.027Z,23.12
2022-08-05T22:05:48.835Z,23.16
2022-08-05T22:08:22.471Z,23.15
2022-08-05T22:10:51.878Z,23.17
2022-08-05T22:14:06.532Z,23.21
2022-08-05T22:16:32.320Z,23.21
2022-08-05T22:18:58.604Z,23.21
2022-08-05T22:21:26.023Z,23.16
2022-08-05T22:24:13.169Z,23.06
2022-08-05T22:27:17.608Z,23.13
2022-08-05T22:29:44.815Z,23.07
2022-08-05T22:32:17.293Z,23.02
2022-08-05T22:34:44.540Z,23.04
2022-08-05T22:37:12.831Z,23.01
2022-08-05T22:39:39.893Z,22.99
2022-08-05T22:42:11.167Z,22.97
2022-08-05T22:44:40.894Z,22.97
2022-08-05T22:47:11.937Z,22.88
2022-08-05T22:50:20.848Z,22.92
2022-08-05T22:52:32.463Z,22.88
2022-08-05T22:55:02.067Z,22.89
2022-08-05T22:57:34.119Z,22.89
2022-08-05T23:00:07.791Z,22.87
2022-08-05T23:02:36.631Z,22.89
2022-08-05T23:05:13.490Z,22.88
2022-08-05T23:07:48.396Z,22.86
2022-08-05T23:10:20.293Z,22.80
2022-08-05T23:12:55.111Z,22.82
2022-08-05T23:15:29.283Z,22.79
2022-08-05T23:18:02.396Z,22.77
2022-08-05T23:20:37.286Z,22.77
2022-08-05T23:23:08.030Z,22.73
2022-08-05T23:25:51.905Z,22.73
2022-08-05T23:28:28.811Z,22.72
2022-08-05T23:30:57.040Z,22.66
2022-08-05T23:34:03.829Z,22.68
2022-08-05T23:36:38.466Z,22.64
2022-08-05T23:39:05.986Z,22.63
2022-08-05T23:41:34.385Z,22.65
2022-08-05T23:44:08.784Z,22.61
2022-08-05T23:46:37.436Z,22.61
2022-08-05T23:49:15.884Z,22.53
2022-08-05T23:52:03.116Z,22.58
2022-08-05T23:54:34.260Z,22.56
2022-08-05T23:57:05.860Z,22.57
